Time;durP1;ratioP1;P1;durP2;ratioP2;P2;SDS_P1;SDS_P2;PMS_P1;PMS_P2;Temp;Humidity;BMP_temperature;BMP_pressure;BME280_temperature;BME280_humidity;BME280_pressure;Samples;Min_cycle;Max_cycle;Signal;HPM_P1;HPM_P2
2024/04/13 00:01:20;;;;;;;0.00;0.00;;;15.90;73.50;;;;;;5458399;26;19991;-81
2024/04/13 00:03:46;;;;;;;0.00;0.00;;;15.80;73.60;;;;;;5474660;26;20020;-81
2024/04/13 00:06:11;;;;;;;0.00;0.00;;;15.90;73.70;;;;;;5456316;26;20010;-81
2024/04/13 00:08:40;;;;;;;0.00;0.00;;;15.80;73.80;;;;;;5448668;26;20118;-81
2024/04/13 00:11:08;;;;;;;0.00;0.00;;;15.80;73.70;;;;;;5448033;26;20353;-81
2024/04/13 00:13:37;;;;;;;0.00;0.00;;;15.80;74.10;;;;;;5422555;26;20473;-81
2024/04/13 00:16:03;;;;;;;0.00;0.00;;;15.80;74.10;;;;;;5422385;26;20851;-81
2024/04/13 00:18:32;;;;;;;0.00;0.00;;;15.80;74.00;;;;;;5431625;26;19999;-81
2024/04/13 00:20:58;;;;;;;0.00;0.00;;;15.80;74.00;;;;;;5422438;26;20011;-81
2024/04/13 00:23:24;;;;;;;0.00;0.00;;;15.70;74.10;;;;;;5422571;26;19995;-81
2024/04/13 00:25:51;;;;;;;0.00;0.00;;;15.70;74.20;;;;;;5448200;26;20035;-81
2024/04/13 00:28:17;;;;;;;0.00;0.00;;;15.60;74.60;;;;;;5458320;26;20034;-81
2024/04/13 00:30:43;;;;;;;0.00;0.00;;;15.50;74.90;;;;;;5458668;26;19995;-80
2024/04/13 00:33:11;;;;;;;0.00;0.00;;;15.50;74.60;;;;;;5465458;26;19998;-81
2024/04/13 00:35:37;;;;;;;0.00;0.00;;;15.50;74.70;;;;;;5493451;26;20014;-81
2024/04/13 00:38:04;;;;;;;0.00;0.00;;;15.50;74.60;;;;;;5493378;26;20031;-81
2024/04/13 00:40:29;;;;;;;0.00;0.00;;;15.50;74.80;;;;;;5489649;26;20002;-81
2024/04/13 00:43:09;;;;;;;0.00;0.00;;;15.40;74.80;;;;;;5457095;26;20025;-81
2024/04/13 00:45:44;;;;;;;0.00;0.00;;;15.40;74.80;;;;;;5457078;26;19995;-81
2024/04/13 00:48:16;;;;;;;0.00;0.00;;;15.40;74.90;;;;;;5456465;26;19995;-81
2024/04/13 00:50:45;;;;;;;0.00;0.00;;;15.40;75.00;;;;;;5456278;26;20298;-81
2024/04/13 00:53:13;;;;;;;0.00;0.00;;;15.40;74.90;;;;;;5456341;26;20316;-81
2024/04/13 00:55:40;;;;;;;0.00;0.00;;;15.30;74.90;;;;;;5457326;26;20006;-81
2024/04/13 00:58:07;;;;;;;0.00;0.00;;;15.30;75.30;;;;;;5455147;26;19995;-81
2024/04/13 01:00:33;;;;;;;0.00;0.00;;;15.30;75.40;;;;;;5458046;26;20073;-81
2024/04/13 01:03:00;;;;;;;0.00;0.00;;;15.30;75.30;;;;;;5462624;26;20005;-81
2024/04/13 01:05:31;;;;;;;0.00;0.00;;;15.30;75.40;;;;;;5492031;26;20006;-81
2024/04/13 01:07:56;;;;;;;0.08;0.08;;;15.20;75.30;;;;;;5477640;26;19995;-81
2024/04/13 01:10:22;;;;;;;0.00;0.00;;;15.20;75.50;;;;;;5458045;26;20005;-81
2024/04/13 01:12:49;;;;;;;0.00;0.00;;;15.20;75.50;;;;;;5456439;26;20010;-81
2024/04/13 01:15:17;;;;;;;0.00;0.00;;;15.20;75.50;;;;;;5456115;26;20057;-81
2024/04/13 01:17:43;;;;;;;0.00;0.00;;;15.10;75.40;;;;;;5457343;26;20045;-81
2024/04/13 01:20:09;;;;;;;0.00;0.00;;;15.20;75.40;;;;;;5457015;26;20441;-81
2024/04/13 01:22:42;;;;;;;0.00;0.00;;;15.20;75.30;;;;;;5453585;26;20038;-81
2024/04/13 01:25:09;;;;;;;0.00;0.00;;;15.10;75.50;;;;;;5453330;26;20005;-81
2024/04/13 01:27:35;;;;;;;0.00;0.00;;;15.10;75.60;;;;;;5492373;26;19990;-81
2024/04/13 01:30:02;;;;;;;0.00;0.00;;;15.00;75.70;;;;;;5457052;26;20013;-81
2024/04/13 01:32:28;;;;;;;0.00;0.00;;;15.10;75.80;;;;;;5454433;26;20013;-81
2024/04/13 01:34:53;;;;;;;0.00;0.00;;;15.00;75.90;;;;;;5489547;26;20321;-81
2024/04/13 01:37:21;;;;;;;0.00;0.00;;;15.00;75.90;;;;;;5455510;26;20071;-81
2024/04/13 01:39:46;;;;;;;0.00;0.00;;;15.00;76.00;;;;;;5457345;26;20038;-81
2024/04/13 01:42:12;;;;;;;0.00;0.00;;;15.00;76.00;;;;;;5457112;26;19998;-81
2024/04/13 01:44:38;;;;;;;0.10;0.10;;;14.90;76.10;;;;;;5456201;26;20003;-81
2024/04/13 01:47:05;;;;;;;0.00;0.00;;;15.00;76.20;;;;;;5455632;26;20096;-81
2024/04/13 01:49:30;;;;;;;0.10;0.10;;;14.90;76.30;;;;;;5456028;26;20002;-81
2024/04/13 01:51:56;;;;;;;0.00;0.00;;;14.90;76.30;;;;;;5454084;26;20006;-81
2024/04/13 01:54:22;;;;;;;0.00;0.00;;;14.80;76.40;;;;;;5457402;26;19995;-81
2024/04/13 01:56:47;;;;;;;0.00;0.00;;;14.80;76.50;;;;;;5423999;26;20010;-81
2024/04/13 01:59:13;;;;;;;0.00;0.00;;;14.80;76.50;;;;;;5427066;26;19990;-81
2024/04/13 02:01:39;;;;;;;0.00;0.00;;;14.80;76.50;;;;;;5457250;26;19999;-81
2024/04/13 02:04:04;;;;;;;0.00;0.00;;;14.80;76.50;;;;;;5480305;26;20005;-81
2024/04/13 02:06:30;;;;;;;0.00;0.00;;;14.80;76.50;;;;;;5465706;26;20464;-81
2024/04/13 02:08:55;;;;;;;0.00;0.00;;;14.80;76.70;;;;;;5454374;26;20010;-81
2024/04/13 02:11:22;;;;;;;0.00;0.00;;;14.70;76.80;;;;;;5456547;26;20010;-81
2024/04/13 02:13:47;;;;;;;0.08;0.08;;;14.60;76.90;;;;;;5456873;26;20073;-81
2024/04/13 02:16:13;;;;;;;0.00;0.00;;;14.70;77.10;;;;;;5456761;26;20031;-81
2024/04/13 02:18:38;;;;;;;0.00;0.00;;;14.60;77.20;;;;;;5455590;26;20007;-80
2024/04/13 02:21:05;;;;;;;0.03;0.03;;;14.60;77.20;;;;;;5456808;26;20006;-81
2024/04/13 02:23:31;;;;;;;0.00;0.00;;;14.70;77.30;;;;;;5455049;26;20579;-80
2024/04/13 02:25:58;;;;;;;0.00;0.00;;;14.70;77.60;;;;;;5455072;26;19998;-81
2024/04/13 02:28:24;;;;;;;0.00;0.00;;;14.70;77.50;;;;;;5455472;26;20014;-80
2024/04/13 02:30:50;;;;;;;0.05;0.05;;;14.70;77.50;;;;;;5454998;26;20005;-80
2024/04/13 02:33:15;;;;;;;0.00;0.00;;;14.70;77.60;;;;;;5466666;26;20339;-81
2024/04/13 02:35:41;;;;;;;0.00;0.00;;;14.70;77.40;;;;;;5433075;26;20011;-80
2024/04/13 02:38:08;;;;;;;0.08;0.08;;;14.60;77.40;;;;;;5418349;26;20011;-81
2024/04/13 02:40:34;;;;;;;0.00;0.00;;;14.60;77.40;;;;;;5418413;26;20453;-81
2024/04/13 02:43:03;;;;;;;0.00;0.00;;;14.60;77.50;;;;;;5435875;26;20078;-81
2024/04/13 02:45:28;;;;;;;0.10;0.10;;;14.60;77.40;;;;;;5455871;26;20035;-80
2024/04/13 02:47:54;;;;;;;0.10;0.10;;;14.50;77.80;;;;;;5455240;26;20002;-81
2024/04/13 02:50:20;;;;;;;0.00;0.00;;;14.50;78.00;;;;;;5453583;26;20062;-80
2024/04/13 02:52:47;;;;;;;0.00;0.00;;;14.50;77.90;;;;;;5435834;26;20009;-81
2024/04/13 02:55:13;;;;;;;0.00;0.00;;;14.50;78.00;;;;;;5424462;26;19999;-81
2024/04/13 02:57:40;;;;;;;0.00;0.00;;;14.50;78.10;;;;;;5454166;26;20013;-81
2024/04/13 03:00:07;;;;;;;0.00;0.00;;;14.40;78.40;;;;;;5455536;26;19998;-81
2024/04/13 03:02:33;;;;;;;0.00;0.00;;;14.40;78.50;;;;;;5455548;26;19999;-81
2024/04/13 03:05:00;;;;;;;0.00;0.00;;;14.30;78.60;;;;;;5489703;26;19998;-80
2024/04/13 03:07:26;;;;;;;0.00;0.00;;;14.30;78.90;;;;;;5475417;26;19999;-80
2024/04/13 03:09:52;;;;;;;0.00;0.00;;;14.20;78.90;;;;;;5420057;26;20014;-80
2024/04/13 03:12:17;;;;;;;0.00;0.00;;;14.20;79.00;;;;;;5446155;26;20052;-81
2024/04/13 03:14:43;;;;;;;0.00;0.00;;;14.20;79.20;;;;;;5454946;26;20417;-81
2024/04/13 03:17:09;;;;;;;0.00;0.00;;;14.20;79.10;;;;;;5455739;26;19997;-81
2024/04/13 03:19:35;;;;;;;0.00;0.00;;;14.20;79.10;;;;;;5453309;26;20003;-80
2024/04/13 03:22:02;;;;;;;0.00;0.00;;;14.20;78.90;;;;;;5452136;26;20340;-80
2024/04/13 03:24:28;;;;;;;0.00;0.00;;;14.20;79.00;;;;;;5453269;26;19995;-80
2024/04/13 03:26:54;;;;;;;0.10;0.10;;;14.20;79.10;;;;;;5453657;26;19999;-80
2024/04/13 03:29:19;;;;;;;0.00;0.00;;;14.10;79.00;;;;;;5455481;26;19997;-81
2024/04/13 03:31:45;;;;;;;0.00;0.00;;;14.10;79.00;;;;;;5454911;26;20079;-80
2024/04/13 03:34:11;;;;;;;0.00;0.00;;;14.10;79.10;;;;;;5479010;26;20026;-81
2024/04/13 03:36:36;;;;;;;0.00;0.00;;;14.10;79.10;;;;;;5469655;26;20000;-80
2024/04/13 03:39:02;;;;;;;0.10;0.10;;;14.10;79.00;;;;;;5419152;26;20465;-80
2024/04/13 03:41:28;;;;;;;0.00;0.00;;;14.10;78.80;;;;;;5418621;26;20003;-80
2024/04/13 03:43:54;;;;;;;0.00;0.00;;;14.00;79.00;;;;;;5420565;26;19999;-81
2024/04/13 03:46:20;;;;;;;0.10;0.10;;;14.10;79.00;;;;;;5443390;26;20034;-80
2024/04/13 03:48:45;;;;;;;0.00;0.00;;;14.10;78.80;;;;;;5459028;26;19998;-81
2024/04/13 03:51:11;;;;;;;0.05;0.05;;;14.00;79.20;;;;;;5458641;26;20080;-80
2024/04/13 03:53:37;;;;;;;0.00;0.00;;;14.00;79.40;;;;;;5458129;26;20005;-80
2024/04/13 03:56:04;;;;;;;0.00;0.00;;;14.10;79.20;;;;;;5457402;26;20404;-81
2024/04/13 03:58:30;;;;;;;0.00;0.00;;;14.10;79.30;;;;;;5456283;26;20044;-80
2024/04/13 04:00:56;;;;;;;0.10;0.10;;;14.10;79.10;;;;;;5458910;26;20034;-81
2024/04/13 04:03:23;;;;;;;0.10;0.10;;;14.00;79.00;;;;;;5470786;26;19998;-81
2024/04/13 04:05:52;;;;;;;0.10;0.10;;;14.00;78.90;;;;;;5492930;26;19998;-80
2024/04/13 04:08:18;;;;;;;0.05;0.05;;;14.00;79.10;;;;;;5484778;26;20333;-81
2024/04/13 04:10:44;;;;;;;0.00;0.00;;;14.00;79.00;;;;;;5456747;26;20067;-80
2024/04/13 04:13:10;;;;;;;0.00;0.00;;;13.90;78.90;;;;;;5456381;26;20095;-80
2024/04/13 04:15:36;;;;;;;0.00;0.00;;;13.90;78.90;;;;;;5448412;26;20015;-81
2024/04/13 04:18:03;;;;;;;0.00;0.00;;;14.00;78.70;;;;;;5450679;26;20362;-80
2024/04/13 04:20:31;;;;;;;0.03;0.03;;;13.90;78.80;;;;;;5450899;26;20011;-80
2024/04/13 04:22:56;;;;;;;0.03;0.03;;;14.00;78.80;;;;;;5444986;26;20329;-81
2024/04/13 04:25:22;;;;;;;0.10;0.10;;;13.80;79.20;;;;;;5458078;26;19998;-80
2024/04/13 04:27:48;;;;;;;0.00;0.00;;;13.80;79.30;;;;;;5457318;26;20010;-80
2024/04/13 04:30:15;;;;;;;0.00;0.00;;;13.80;79.50;;;;;;5420384;26;20329;-81
2024/04/13 04:32:42;;;;;;;0.00;0.00;;;13.70;79.50;;;;;;5429517;26;19999;-81
2024/04/13 04:35:08;;;;;;;0.00;0.00;;;13.70;79.50;;;;;;5435424;26;20014;-80
2024/04/13 04:37:34;;;;;;;0.00;0.00;;;13.70;79.60;;;;;;5450819;26;19998;-80
2024/04/13 04:40:00;;;;;;;0.00;0.00;;;13.70;79.70;;;;;;5455276;26;20070;-80
2024/04/13 04:42:28;;;;;;;0.00;0.00;;;13.70;79.70;;;;;;5457769;26;19998;-80
2024/04/13 04:44:56;;;;;;;0.10;0.10;;;13.70;79.70;;;;;;5456203;26;19999;-80
2024/04/13 04:47:22;;;;;;;0.00;0.00;;;13.70;79.70;;;;;;5457080;26;20819;-80
2024/04/13 04:49:48;;;;;;;0.00;0.00;;;13.70;79.90;;;;;;5456381;26;20021;-80
2024/04/13 04:52:14;;;;;;;0.10;0.10;;;13.60;80.00;;;;;;5454865;26;20018;-81
2024/04/13 04:54:40;;;;;;;0.03;0.03;;;13.70;80.00;;;;;;5456997;26;20014;-81
2024/04/13 04:57:06;;;;;;;0.00;0.00;;;13.60;80.10;;;;;;5446703;26;19995;-80
2024/04/13 04:59:31;;;;;;;0.00;0.00;;;13.60;79.90;;;;;;5420044;26;20000;-81
2024/04/13 05:01:57;;;;;;;0.00;0.00;;;13.60;80.00;;;;;;5443981;26;20356;-80
2024/04/13 05:04:24;;;;;;;0.03;0.03;;;13.60;80.20;;;;;;5461501;26;20006;-80
2024/04/13 05:06:49;;;;;;;0.00;0.00;;;13.50;80.30;;;;;;5448778;26;20007;-80
2024/04/13 05:09:16;;;;;;;0.00;0.00;;;13.60;80.20;;;;;;5419360;26;20018;-80
2024/04/13 05:11:41;;;;;;;0.00;0.00;;;13.50;80.30;;;;;;5438711;26;20010;-81
2024/04/13 05:14:09;;;;;;;0.10;0.10;;;13.50;80.20;;;;;;5455903;26;19998;-80
2024/04/13 05:16:35;;;;;;;0.00;0.00;;;13.50;80.50;;;;;;5456248;26;19995;-80
2024/04/13 05:19:03;;;;;;;0.00;0.00;;;13.50;80.40;;;;;;5443550;26;20010;-80
2024/04/13 05:21:29;;;;;;;0.00;0.00;;;13.50;80.60;;;;;;5452503;26;19999;-80
2024/04/13 05:23:55;;;;;;;0.00;0.00;;;13.50;80.60;;;;;;5454147;26;20023;-80
2024/04/13 05:26:21;;;;;;;0.00;0.00;;;13.50;80.60;;;;;;5451540;26;20386;-80
2024/04/13 05:28:47;;;;;;;0.10;0.10;;;13.50;80.50;;;;;;5452845;26;20017;-80
2024/04/13 05:31:13;;;;;;;0.00;0.00;;;13.50;80.60;;;;;;5457511;26;20429;-80
2024/04/13 05:33:39;;;;;;;0.00;0.00;;;13.60;80.50;;;;;;5472637;26;20009;-80
2024/04/13 05:36:05;;;;;;;0.00;0.00;;;13.60;80.20;;;;;;5461012;26;19999;-80
2024/04/13 05:38:31;;;;;;;0.00;0.00;;;13.50;80.30;;;;;;5455524;26;19999;-80
2024/04/13 05:40:57;;;;;;;0.00;0.00;;;13.60;80.30;;;;;;5448763;26;19995;-80
2024/04/13 05:43:22;;;;;;;0.00;0.00;;;13.50;80.50;;;;;;5421416;26;19996;-80
2024/04/13 05:45:49;;;;;;;0.10;0.10;;;13.50;80.70;;;;;;5418704;26;20027;-81
2024/04/13 05:48:15;;;;;;;0.00;0.00;;;13.50;80.60;;;;;;5419997;26;20477;-80
2024/04/13 05:50:40;;;;;;;0.00;0.00;;;13.50;81.00;;;;;;5438462;26;20530;-81
2024/04/13 05:53:06;;;;;;;0.00;0.00;;;13.50;81.00;;;;;;5457838;26;20015;-81
2024/04/13 05:55:35;;;;;;;0.00;0.00;;;13.50;80.90;;;;;;5451907;26;20024;-81
2024/04/13 05:58:01;;;;;;;0.10;0.10;;;13.60;80.80;;;;;;5429161;26;20015;-80
2024/04/13 06:00:28;;;;;;;0.00;0.00;;;13.60;80.60;;;;;;5424203;26;19998;-80
2024/04/13 06:02:54;;;;;;;0.10;0.10;;;13.70;80.30;;;;;;5451745;26;20449;-77
2024/04/13 06:05:19;;;;;;;0.00;0.00;;;13.70;80.20;;;;;;5429960;26;19999;-78
2024/04/13 06:07:45;;;;;;;0.00;0.00;;;13.70;80.50;;;;;;5420882;26;20420;-79
2024/04/13 06:10:11;;;;;;;0.10;0.10;;;13.70;80.60;;;;;;5454664;26;20010;-79
2024/04/13 06:12:36;;;;;;;0.00;0.00;;;13.70;80.70;;;;;;5440631;26;20000;-78
2024/04/13 06:15:02;;;;;;;0.00;0.00;;;13.70;80.60;;;;;;5420062;26;19999;-79
2024/04/13 06:17:27;;;;;;;0.10;0.10;;;13.70;80.50;;;;;;5418023;26;20003;-80
2024/04/13 06:19:53;;;;;;;0.00;0.00;;;13.80;80.40;;;;;;5419827;26;20344;-79
2024/04/13 06:22:23;;;;;;;0.10;0.10;;;13.80;80.30;;;;;;5420250;26;20018;-81
2024/04/13 06:24:49;;;;;;;0.05;0.05;;;13.90;80.40;;;;;;5420529;26;20057;-79
2024/04/13 06:27:16;;;;;;;0.10;0.10;;;13.90;80.20;;;;;;5447236;26;20007;-80
2024/04/13 06:29:46;;;;;;;0.00;0.00;;;14.00;80.20;;;;;;5445523;26;19999;-81
2024/04/13 06:32:12;;;;;;;0.10;0.10;;;14.00;80.30;;;;;;5450880;26;20007;-78
2024/04/13 06:34:38;;;;;;;0.10;0.10;;;14.10;80.30;;;;;;5449669;26;20068;-79
2024/04/13 06:37:03;;;;;;;0.00;0.00;;;14.20;80.30;;;;;;5453380;26;19995;-78
2024/04/13 06:39:29;;;;;;;0.05;0.05;;;14.20;80.40;;;;;;5454253;26;20091;-78
2024/04/13 06:41:55;;;;;;;0.00;0.00;;;14.30;80.20;;;;;;5449656;26;20006;-78
2024/04/13 06:44:20;;;;;;;0.08;0.08;;;14.30;80.70;;;;;;5450469;26;20003;-82
2024/04/13 06:46:46;;;;;;;0.10;0.10;;;14.40;80.50;;;;;;5445419;26;20073;-79
2024/04/13 06:49:12;;;;;;;0.10;0.10;;;14.50;80.40;;;;;;5452006;26;20464;-78
2024/04/13 06:51:38;;;;;;;0.00;0.00;;;14.60;80.40;;;;;;5449120;26;20321;-78
2024/04/13 06:54:04;;;;;;;0.10;0.10;;;14.70;80.20;;;;;;5452638;26;20006;-83
2024/04/13 06:56:30;;;;;;;0.10;0.10;;;14.70;80.30;;;;;;5455882;26;20006;-78
2024/04/13 06:58:56;;;;;;;0.00;0.00;;;14.80;80.00;;;;;;5449948;26;20003;-79
2024/04/13 07:01:21;;;;;;;0.10;0.10;;;14.90;80.00;;;;;;5453594;26;19995;-79
2024/04/13 07:03:48;;;;;;;0.10;0.10;;;15.10;79.80;;;;;;5450893;26;19999;-78
2024/04/13 07:06:14;;;;;;;0.10;0.10;;;15.20;79.70;;;;;;5450176;26;20006;-81
2024/04/13 07:08:42;;;;;;;0.10;0.10;;;15.20;79.40;;;;;;5450177;26;20005;-78
2024/04/13 07:11:07;;;;;;;0.10;0.10;;;15.30;79.60;;;;;;5454720;26;20003;-77
2024/04/13 07:13:33;;;;;;;0.10;0.10;;;15.40;79.20;;;;;;5450297;26;20068;-78
2024/04/13 07:15:59;;;;;;;0.10;0.10;;;15.50;79.40;;;;;;5447384;26;20010;-78
2024/04/13 07:18:25;;;;;;;0.10;0.10;;;15.70;78.80;;;;;;5451598;26;20048;-78
2024/04/13 07:20:51;;;;;;;0.10;0.10;;;15.90;78.10;;;;;;5421853;26;20031;-78
2024/04/13 07:23:16;;;;;;;0.10;0.10;;;16.10;77.50;;;;;;5421875;26;20015;-83
2024/04/13 07:25:45;;;;;;;0.10;0.10;;;16.20;77.20;;;;;;5421132;26;19996;-79
2024/04/13 07:28:10;;;;;;;0.10;0.10;;;16.30;76.70;;;;;;5452260;26;20003;-80
2024/04/13 07:30:36;;;;;;;0.10;0.10;;;16.40;76.50;;;;;;5450564;26;20765;-80
2024/04/13 07:33:02;;;;;;;0.10;0.10;;;16.50;76.10;;;;;;5455022;26;20005;-80
2024/04/13 07:35:28;;;;;;;0.10;0.10;;;16.80;75.70;;;;;;5452724;26;20006;-80
2024/04/13 07:37:54;;;;;;;0.10;0.10;;;17.50;74.20;;;;;;5455684;26;20005;-80
2024/04/13 07:40:19;;;;;;;0.30;0.30;;;18.20;72.20;;;;;;5453547;26;20019;-81
2024/04/13 07:42:45;;;;;;;0.30;0.30;;;19.20;70.40;;;;;;5457340;26;19999;-79
2024/04/13 07:45:11;;;;;;;0.47;0.47;;;20.80;66.40;;;;;;5459036;26;20339;-79
2024/04/13 07:47:36;;;;;;;0.47;0.47;;;22.30;62.00;;;;;;5453027;26;20437;-79
2024/04/13 07:50:02;;;;;;;0.40;0.40;;;23.60;57.50;;;;;;5453680;26;19995;-79
2024/04/13 07:52:28;;;;;;;0.40;0.40;;;25.70;53.80;;;;;;5454929;26;20030;-79
2024/04/13 07:54:53;;;;;;;0.30;0.30;;;26.20;50.50;;;;;;5423406;26;20002;-79
2024/04/13 07:57:19;;;;;;;0.40;0.40;;;26.40;48.90;;;;;;5453674;26;19990;-79
2024/04/13 07:59:45;;;;;;;0.30;0.30;;;26.70;48.50;;;;;;5434266;26;20110;-79
2024/04/13 08:02:11;;;;;;;0.40;0.40;;;26.80;47.90;;;;;;5422374;26;20053;-79
2024/04/13 08:04:36;;;;;;;0.30;0.30;;;27.30;46.40;;;;;;5453689;26;20414;-79
2024/04/13 08:07:02;;;;;;;0.40;0.40;;;27.30;46.90;;;;;;5453621;26;20461;-79
2024/04/13 08:09:28;;;;;;;0.50;0.50;;;27.70;45.90;;;;;;5456730;26;20444;-79
2024/04/13 08:11:54;;;;;;;0.52;0.52;;;28.40;44.30;;;;;;5451020;26;20075;-79
2024/04/13 08:14:19;;;;;;;0.40;0.40;;;29.20;43.60;;;;;;5422451;26;20338;-79
2024/04/13 08:16:45;;;;;;;0.30;0.30;;;28.70;42.80;;;;;;5422343;26;19999;-79
2024/04/13 08:19:11;;;;;;;0.40;0.40;;;28.00;43.60;;;;;;5422454;26;20003;-78
2024/04/13 08:21:37;;;;;;;0.50;0.50;;;28.20;44.60;;;;;;5451472;26;20013;-79
2024/04/13 08:24:03;;;;;;;0.40;0.40;;;27.90;43.90;;;;;;5451991;26;20048;-79
2024/04/13 08:26:28;;;;;;;0.50;0.50;;;28.00;43.60;;;;;;5450114;26;20068;-79
2024/04/13 08:28:54;;;;;;;0.50;0.50;;;28.00;43.80;;;;;;5452798;26;20006;-79
2024/04/13 08:31:19;;;;;;;0.55;0.55;;;28.00;43.80;;;;;;5452600;26;20003;-79
2024/04/13 08:33:45;;;;;;;0.60;0.60;;;28.40;43.90;;;;;;5446862;26;20007;-79
2024/04/13 08:36:11;;;;;;;0.70;0.70;;;29.00;42.80;;;;;;5429212;26;19995;-79
2024/04/13 08:38:36;;;;;;;0.60;0.60;;;29.80;41.70;;;;;;5420612;26;20027;-79
2024/04/13 08:41:13;;;;;;;0.90;0.90;;;30.20;40.20;;;;;;5439128;26;20081;-79
2024/04/13 08:43:39;;;;;;;0.80;0.80;;;30.60;40.60;;;;;;5440787;26;19995;-79
2024/04/13 08:46:07;;;;;;;0.90;0.90;;;31.20;39.90;;;;;;5419626;26;19996;-79
2024/04/13 08:48:36;;;;;;;0.88;0.88;;;31.80;38.50;;;;;;5421361;26;19996;-79
2024/04/13 08:51:03;;;;;;;0.70;0.70;;;32.30;37.70;;;;;;5454895;26;20020;-79
2024/04/13 08:53:31;;;;;;;0.60;0.60;;;32.30;36.70;;;;;;5471864;26;20051;-79
2024/04/13 08:56:00;;;;;;;0.80;0.80;;;31.70;37.50;;;;;;5457440;26;19999;-79
2024/04/13 08:58:28;;;;;;;0.60;0.60;;;31.80;38.40;;;;;;5458072;26;20020;-79
2024/04/13 09:00:59;;;;;;;0.70;0.70;;;31.40;38.40;;;;;;5437745;26;19999;-82
2024/04/13 09:03:27;;;;;;;;;;;31.70;38.00;;;;;;5457832;26;20072;-78
2024/04/13 09:05:53;;;;;;;0.65;0.65;;;31.80;38.20;;;;;;5457299;26;20012;-83
2024/04/13 09:08:22;;;;;;;0.80;0.80;;;31.60;38.20;;;;;;5456178;26;19995;-80
2024/04/13 09:10:51;;;;;;;0.80;0.80;;;31.60;38.20;;;;;;5438616;26;20000;-76
2024/04/13 09:13:17;;;;;;;0.90;0.90;;;31.80;38.30;;;;;;5451884;26;19999;-80
2024/04/13 09:15:44;;;;;;;1.00;1.00;;;31.90;38.20;;;;;;5450793;26;20462;-78
2024/04/13 09:18:13;;;;;;;1.00;1.00;;;31.90;38.40;;;;;;5449198;26;20032;-76
2024/04/13 09:20:39;;;;;;;0.98;0.98;;;31.60;39.00;;;;;;5436902;26;20089;-78
2024/04/13 09:23:05;;;;;;;0.90;0.90;;;31.50;39.00;;;;;;5457225;26;20003;-80
2024/04/13 09:25:31;;;;;;;0.60;0.60;;;32.10;38.90;;;;;;5442750;26;20433;-78
2024/04/13 09:28:04;;;;;;;0.80;0.80;;;32.10;38.70;;;;;;5440213;26;20079;-78
2024/04/13 09:30:30;;;;;;;1.08;1.08;;;32.10;38.90;;;;;;5453104;26;20009;-79
2024/04/13 09:33:03;;;;;;;1.05;1.05;;;32.00;38.20;;;;;;5448984;26;20007;-77
2024/04/13 09:35:29;;;;;;;1.23;1.20;;;32.40;38.30;;;;;;5440246;26;20010;-77
2024/04/13 09:37:57;;;;;;;2.28;1.65;;;32.80;37.60;;;;;;5436260;26;20013;-76
2024/04/13 09:40:23;;;;;;;1.40;1.30;;;32.80;37.70;;;;;;5451347;26;19999;-76
2024/04/13 09:42:49;;;;;;;1.25;1.17;;;33.00;37.00;;;;;;5449056;26;20006;-77
2024/04/13 09:45:15;;;;;;;1.50;1.40;;;32.80;36.60;;;;;;5434808;26;19994;-75
2024/04/13 09:47:40;;;;;;;1.50;1.40;;;32.80;36.60;;;;;;5450796;26;19998;-77
2024/04/13 09:50:06;;;;;;;1.48;1.38;;;32.90;37.30;;;;;;5450046;26;20002;-76
2024/04/13 09:52:33;;;;;;;1.48;1.38;;;33.10;36.80;;;;;;5432998;26;20076;-78
2024/04/13 09:55:00;;;;;;;1.50;1.40;;;33.00;36.70;;;;;;5436195;26;20022;-78
2024/04/13 09:57:26;;;;;;;1.40;1.30;;;32.80;36.00;;;;;;5445362;26;19999;-77
2024/04/13 09:59:53;;;;;;;1.40;1.30;;;32.40;37.30;;;;;;5452634;26;20714;-77
2024/04/13 10:02:19;;;;;;;1.15;1.15;;;32.20;37.60;;;;;;5446999;26;20086;-76
2024/04/13 10:04:45;;;;;;;1.15;1.15;;;32.10;38.60;;;;;;5449379;26;20014;-76
2024/04/13 10:07:11;;;;;;;1.00;1.00;;;31.90;37.80;;;;;;5450384;26;20006;-80
2024/04/13 10:09:46;;;;;;;1.20;1.15;;;31.00;38.40;;;;;;5452718;26;19999;-78
2024/04/13 10:12:21;;;;;;;1.30;1.20;;;30.70;39.70;;;;;;5455335;26;20003;-77
2024/04/13 10:14:50;;;;;;;1.08;1.08;;;30.50;40.50;;;;;;5449002;26;20010;-80
2024/04/13 10:17:16;;;;;;;0.90;0.90;;;29.80;40.00;;;;;;5453667;26;20014;-81
2024/04/13 10:19:45;;;;;;;0.90;0.90;;;29.50;42.20;;;;;;5446370;26;20003;-79
2024/04/13 10:22:13;;;;;;;0.20;0.20;;;29.40;42.10;;;;;;5453691;26;20007;-79
2024/04/13 10:24:45;;;;;;;0.10;0.10;;;29.30;43.40;;;;;;5429181;26;20050;-75
2024/04/13 10:27:13;;;;;;;0.00;0.00;;;28.80;45.10;;;;;;5451680;26;19999;-77
2024/04/13 10:29:46;;;;;;;0.00;0.00;;;27.90;44.40;;;;;;5454845;26;20003;-75
2024/04/13 10:32:22;;;;;;;0.00;0.00;;;27.20;47.30;;;;;;5435460;26;19996;-75
2024/04/13 10:34:49;;;;;;;0.00;0.00;;;26.70;48.70;;;;;;5446955;26;20022;-74
2024/04/13 10:37:25;;;;;;;0.00;0.00;;;26.10;48.10;;;;;;5421906;26;19996;-74
2024/04/13 10:39:56;;;;;;;0.00;0.00;;;25.80;48.60;;;;;;5421112;26;20007;-74
2024/04/13 10:42:33;;;;;;;0.00;0.00;;;25.60;48.40;;;;;;5452657;26;19999;-73
2024/04/13 10:44:59;;;;;;;0.00;0.00;;;25.40;48.20;;;;;;5454007;26;20056;-73
2024/04/13 10:47:26;;;;;;;0.00;0.00;;;25.30;49.50;;;;;;5423644;26;20433;-74
2024/04/13 10:49:54;;;;;;;0.00;0.00;;;25.30;49.10;;;;;;5420567;26;19999;-74
2024/04/13 10:52:20;;;;;;;0.00;0.00;;;25.30;49.80;;;;;;5456126;26;20432;-73
2024/04/13 10:54:58;;;;;;;0.00;0.00;;;25.40;50.00;;;;;;5416910;26;20011;-74
2024/04/13 10:57:24;;;;;;;0.08;0.08;;;25.30;50.70;;;;;;5417149;26;20071;-73
2024/04/13 10:59:51;;;;;;;0.00;0.00;;;25.30;51.90;;;;;;5425320;26;19999;-74
2024/04/13 11:02:17;;;;;;;0.00;0.00;;;25.40;50.60;;;;;;5453150;26;19999;-73
2024/04/13 11:04:43;;;;;;;0.00;0.00;;;25.40;50.70;;;;;;5447692;26;20460;-79
2024/04/13 11:07:14;;;;;;;0.00;0.00;;;25.40;51.20;;;;;;5416297;26;20003;-76
2024/04/13 11:09:40;;;;;;;0.00;0.00;;;25.30;50.60;;;;;;5421955;26;20030;-75
2024/04/13 11:12:11;;;;;;;0.00;0.00;;;25.30;50.90;;;;;;5451431;26;20355;-75
2024/04/13 11:14:36;;;;;;;0.00;0.00;;;25.30;51.30;;;;;;5427778;26;20633;-76
2024/04/13 11:17:02;;;;;;;0.00;0.00;;;25.50;52.00;;;;;;5440950;26;20003;-74
2024/04/13 11:19:28;;;;;;;0.00;0.00;;;25.50;51.00;;;;;;5444765;26;20021;-73
2024/04/13 11:21:55;;;;;;;0.00;0.00;;;25.40;50.30;;;;;;5442398;26;20009;-73
2024/04/13 11:24:21;;;;;;;0.00;0.00;;;25.40;50.20;;;;;;5443670;26;20003;-73
2024/04/13 11:26:46;;;;;;;0.00;0.00;;;25.40;52.00;;;;;;5447519;26;19999;-74
2024/04/13 11:29:12;;;;;;;0.00;0.00;;;25.40;49.20;;;;;;5448680;26;20010;-74
2024/04/13 11:31:38;;;;;;;0.00;0.00;;;25.30;48.90;;;;;;5446895;26;19995;-73
2024/04/13 11:34:04;;;;;;;0.00;0.00;;;25.40;49.10;;;;;;5447983;26;20006;-74
2024/04/13 11:36:30;;;;;;;0.00;0.00;;;25.40;47.70;;;;;;5450545;26;20072;-73
2024/04/13 11:38:55;;;;;;;0.00;0.00;;;25.50;49.90;;;;;;5446578;26;20003;-74
2024/04/13 11:41:22;;;;;;;0.00;0.00;;;25.60;49.50;;;;;;5447268;26;20017;-73
2024/04/13 11:43:54;;;;;;;0.00;0.00;;;25.70;50.40;;;;;;5449562;26;19999;-74
2024/04/13 11:46:20;;;;;;;;;;;25.70;50.10;;;;;;5446006;26;20009;-74
2024/04/13 11:48:46;;;;;;;0.00;0.00;;;25.80;50.40;;;;;;5447852;26;19993;-74
2024/04/13 11:51:12;;;;;;;0.00;0.00;;;25.80;49.90;;;;;;5453211;26;20019;-73
2024/04/13 11:53:38;;;;;;;0.00;0.00;;;25.80;49.30;;;;;;5446584;26;20523;-73
2024/04/13 11:56:07;;;;;;;0.00;0.00;;;25.80;50.00;;;;;;5451064;26;20013;-74
2024/04/13 11:58:33;;;;;;;0.00;0.00;;;25.80;50.30;;;;;;5449956;26;20007;-74
2024/04/13 12:00:59;;;;;;;0.00;0.00;;;25.90;49.80;;;;;;5445102;26;20049;-76
2024/04/13 12:03:24;;;;;;;0.00;0.00;;;25.80;47.80;;;;;;5447576;26;19995;-81
2024/04/13 12:05:55;;;;;;;0.00;0.00;;;25.80;50.20;;;;;;5450035;26;19995;-81
2024/04/13 12:08:21;;;;;;;0.00;0.00;;;25.70;48.60;;;;;;5455838;26;20058;-78
2024/04/13 12:10:49;;;;;;;0.00;0.00;;;25.70;49.70;;;;;;5451686;26;20005;-81
2024/04/13 12:13:15;;;;;;;0.00;0.00;;;25.70;49.40;;;;;;5453469;26;19998;-77
2024/04/13 12:15:40;;;;;;;0.00;0.00;;;25.70;48.70;;;;;;5451154;26;20009;-76
2024/04/13 12:18:06;;;;;;;0.00;0.00;;;25.70;48.70;;;;;;5442949;26;20006;-75
2024/04/13 12:20:32;;;;;;;0.00;0.00;;;25.80;49.10;;;;;;5432341;26;20566;-77
2024/04/13 12:22:58;;;;;;;0.00;0.00;;;25.90;49.40;;;;;;5429138;26;20020;-78
2024/04/13 12:25:23;;;;;;;0.00;0.00;;;25.80;46.50;;;;;;5454168;26;20444;-77
2024/04/13 12:27:49;;;;;;;0.00;0.00;;;25.70;47.20;;;;;;5452666;26;20003;-77
2024/04/13 12:30:15;;;;;;;0.00;0.00;;;25.60;46.90;;;;;;5438848;26;20007;-77
2024/04/13 12:32:40;;;;;;;0.00;0.00;;;25.70;48.40;;;;;;5420219;26;20010;-76
2024/04/13 12:35:07;;;;;;;0.00;0.00;;;25.70;48.90;;;;;;5424135;26;20003;-76
2024/04/13 12:37:35;;;;;;;0.00;0.00;;;25.70;48.00;;;;;;5427878;26;20010;-75
2024/04/13 12:40:00;;;;;;;0.00;0.00;;;25.80;50.30;;;;;;5424631;26;20087;-75
2024/04/13 12:42:28;;;;;;;0.00;0.00;;;26.00;49.90;;;;;;5456173;26;20026;-75
2024/04/13 12:44:53;;;;;;;0.00;0.00;;;26.00;49.30;;;;;;5441522;26;20462;-76